Time;durP1;ratioP1;P1;durP2;ratioP2;P2;SDS_P1;SDS_P2;PMS_P1;PMS_P2;Temp;Humidity;BMP_temperature;BMP_pressure;BME280_temperature;BME280_humidity;BME280_pressure;Samples;Min_cycle;Max_cycle;Signal;HPM_P1;HPM_P2
2023/10/15 00:00:13;;;;;;;1.40;0.65;;;;;;;;;;5036166;28;20506;-74
2023/10/15 00:02:43;;;;;;;1.17;0.52;;;;;;;;;;5054156;28;20033;-74
2023/10/15 00:05:10;;;;;;;0.80;0.57;;;;;;;;;;5053970;28;20017;-74
2023/10/15 00:07:36;;;;;;;0.98;0.43;;;;;;;;;;5052883;28;20032;-74
2023/10/15 00:10:03;;;;;;;3.40;0.50;;;;;;;;;;5054050;28;20040;-74
2023/10/15 00:12:30;;;;;;;2.22;0.80;;;;;;;;;;5053637;28;20037;-74
2023/10/15 00:14:56;;;;;;;0.80;0.50;;;;;;;;;;5053812;28;20031;-74
2023/10/15 00:17:22;;;;;;;1.58;0.50;;;;;;;;;;5053733;28;20055;-74
2023/10/15 00:19:49;;;;;;;2.38;0.70;;;;;;;;;;5053914;28;20082;-74
2023/10/15 00:22:16;;;;;;;2.28;0.57;;;;;;;;;;5053853;28;20028;-74
2023/10/15 00:24:43;;;;;;;0.57;0.50;;;;;;;;;;5053890;28;20035;-74
2023/10/15 00:27:09;;;;;;;0.38;0.38;;;;;;;;;;5053116;28;20385;-74
2023/10/15 00:29:36;;;;;;;1.00;0.40;;;;;;;;;;5033703;28;20032;-74
2023/10/15 00:32:03;;;;;;;1.15;0.50;;;;;;;;;;5033888;28;20495;-74
2023/10/15 00:34:30;;;;;;;0.82;0.73;;;;;;;;;;5033357;28;20368;-74
2023/10/15 00:36:56;;;;;;;1.75;0.52;;;;;;;;;;5033526;28;20100;-74
2023/10/15 00:39:23;;;;;;;0.40;0.32;;;;;;;;;;5033354;28;20033;-74
2023/10/15 00:41:49;;;;;;;1.35;0.40;;;;;;;;;;5032951;28;20025;-74
2023/10/15 00:44:16;;;;;;;2.83;0.50;;;;;;;;;;5015426;28;20025;-74
2023/10/15 00:46:45;;;;;;;4.88;0.60;;;;;;;;;;5033446;28;20040;-74
2023/10/15 00:49:13;;;;;;;1.13;0.43;;;;;;;;;;5033361;28;20014;-74
2023/10/15 00:51:41;;;;;;;0.52;0.50;;;;;;;;;;5032731;28;20032;-73
2023/10/15 00:54:12;;;;;;;0.90;0.50;;;;;;;;;;5032360;28;20032;-74
2023/10/15 00:56:39;;;;;;;0.40;0.30;;;;;;;;;;5032428;28;20398;-74
2023/10/15 00:59:13;;;;;;;1.20;0.50;;;;;;;;;;5032945;28;20021;-74
2023/10/15 01:01:42;;;;;;;0.77;0.50;;;;;;;;;;5032817;28;20394;-74
2023/10/15 01:04:10;;;;;;;1.38;0.50;;;;;;;;;;5032946;28;20014;-74
2023/10/15 01:06:39;;;;;;;2.50;0.40;;;;;;;;;;5031701;28;20036;-74
2023/10/15 01:09:29;;;;;;;0.43;0.43;;;;;;;;;;5033106;28;20029;-74
2023/10/15 01:11:56;;;;;;;1.95;0.40;;;;;;;;;;5032659;28;20037;-74
2023/10/15 01:14:38;;;;;;;0.52;0.50;;;;;;;;;;5033002;28;20028;-74
2023/10/15 01:17:04;;;;;;;0.50;0.47;;;;;;;;;;5031652;28;20393;-74
2023/10/15 01:19:31;;;;;;;0.68;0.35;;;;;;;;;;5032978;28;20029;-74
2023/10/15 01:21:58;;;;;;;1.05;0.50;;;;;;;;;;5032638;28;20493;-74
2023/10/15 01:24:27;;;;;;;0.68;0.40;;;;;;;;;;5032076;28;20049;-74
2023/10/15 01:29:36;;;;;;;0.98;0.57;;;;;;;;;;5052408;28;20033;-74
2023/10/15 01:32:03;;;;;;;2.28;0.50;;;;;;;;;;5052383;28;20041;-74
2023/10/15 01:34:37;;;;;;;0.65;0.47;;;;;;;;;;5052362;28;20017;-74
2023/10/15 01:37:13;;;;;;;0.50;0.40;;;;;;;;;;5052443;28;20504;-74
2023/10/15 01:39:39;;;;;;;0.57;0.32;;;;;;;;;;5052310;28;20530;-74
2023/10/15 01:42:20;;;;;;;1.30;0.63;;;;;;;;;;5052441;28;20086;-74
2023/10/15 01:44:49;;;;;;;;;;;;;;;;;;5085307;28;20025;-74
2023/10/15 01:47:16;;;;;;;0.80;0.60;;;;;;;;;;5052349;28;19904;-74
2023/10/15 01:49:42;;;;;;;0.40;0.40;;;;;;;;;;5051525;28;20512;-74
2023/10/15 01:52:09;;;;;;;0.50;0.50;;;;;;;;;;5053177;28;20090;-74
2023/10/15 01:54:36;;;;;;;1.48;0.70;;;;;;;;;;5051259;28;20039;-74
2023/10/15 01:57:14;;;;;;;1.08;0.43;;;;;;;;;;5052054;28;20053;-74
2023/10/15 01:59:47;;;;;;;1.50;0.50;;;;;;;;;;5051007;28;20025;-74
2023/10/15 02:02:17;;;;;;;3.53;0.40;;;;;;;;;;5052239;28;20470;-74
2023/10/15 02:04:44;;;;;;;0.73;0.40;;;;;;;;;;5054359;28;20023;-74
2023/10/15 02:07:19;;;;;;;0.80;0.43;;;;;;;;;;5056270;28;20080;-74
2023/10/15 02:09:46;;;;;;;0.77;0.52;;;;;;;;;;5055800;28;20019;-74
2023/10/15 02:12:13;;;;;;;0.85;0.32;;;;;;;;;;5054854;28;20033;-74
2023/10/15 02:14:44;;;;;;;1.90;0.30;;;;;;;;;;5054712;28;20025;-74
2023/10/15 02:17:13;;;;;;;;;;;;;;;;;;5057201;28;20025;-73
2023/10/15 02:19:42;;;;;;;0.40;0.40;;;;;;;;;;5056144;28;19931;-74
2023/10/15 02:22:15;;;;;;;2.28;0.50;;;;;;;;;;5055758;28;20082;-74
2023/10/15 02:24:48;;;;;;;2.80;0.65;;;;;;;;;;5055653;28;20496;-74
2023/10/15 02:27:17;;;;;;;2.42;0.60;;;;;;;;;;5055826;28;20035;-74
2023/10/15 02:29:50;;;;;;;0.70;0.40;;;;;;;;;;5055654;28;20490;-74
2023/10/15 02:34:52;;;;;;;0.45;0.30;;;;;;;;;;5055466;28;20025;-74
2023/10/15 02:37:23;;;;;;;1.88;0.50;;;;;;;;;;5055159;28;20039;-74
2023/10/15 02:39:50;;;;;;;1.20;0.40;;;;;;;;;;5055513;28;20025;-74
2023/10/15 02:42:17;;;;;;;0.52;0.50;;;;;;;;;;5055472;28;20039;-74
2023/10/15 02:44:43;;;;;;;1.33;0.50;;;;;;;;;;5055563;28;20031;-74
2023/10/15 02:47:19;;;;;;;1.08;0.30;;;;;;;;;;5055373;28;20025;-74
2023/10/15 02:50:02;;;;;;;2.60;0.60;;;;;;;;;;5055211;28;20029;-74
2023/10/15 02:52:35;;;;;;;0.40;0.40;;;;;;;;;;5053754;28;20033;-74
2023/10/15 02:55:09;;;;;;;0.85;0.55;;;;;;;;;;5055370;28;20021;-74
2023/10/15 02:57:39;;;;;;;0.70;0.70;;;;;;;;;;5055035;28;20045;-73
2023/10/15 03:00:28;;;;;;;0.57;0.50;;;;;;;;;;5054062;28;20033;-73
2023/10/15 03:02:57;;;;;;;0.88;0.40;;;;;;;;;;5055245;28;20070;-74
2023/10/15 03:05:30;;;;;;;1.08;0.40;;;;;;;;;;5054724;28;20032;-73
2023/10/15 03:08:00;;;;;;;1.05;0.50;;;;;;;;;;5055204;28;20028;-74
2023/10/15 03:10:46;;;;;;;3.08;0.40;;;;;;;;;;5054941;28;20433;-74
2023/10/15 03:13:16;;;;;;;1.55;0.47;;;;;;;;;;5054815;28;20033;-73
2023/10/15 03:15:52;;;;;;;0.68;0.40;;;;;;;;;;5053973;28;20025;-73
2023/10/15 03:18:23;;;;;;;0.90;0.50;;;;;;;;;;5055017;28;20031;-74
2023/10/15 03:20:50;;;;;;;2.40;0.68;;;;;;;;;;5054410;28;20478;-74
2023/10/15 03:23:19;;;;;;;2.70;0.60;;;;;;;;;;5055520;28;20033;-74
2023/10/15 03:25:57;;;;;;;4.20;0.70;;;;;;;;;;5054970;28;20033;-74
2023/10/15 03:28:24;;;;;;;1.65;0.73;;;;;;;;;;5054788;28;20101;-74
2023/10/15 03:30:54;;;;;;;4.50;0.93;;;;;;;;;;5055073;28;20016;-74
2023/10/15 03:33:23;;;;;;;2.22;0.60;;;;;;;;;;5054545;28;20029;-74
2023/10/15 03:36:03;;;;;;;3.83;0.75;;;;;;;;;;5054257;28;20033;-74
2023/10/15 03:38:32;;;;;;;3.33;0.95;;;;;;;;;;5054343;28;20082;-74
2023/10/15 03:41:39;;;;;;;2.28;0.70;;;;;;;;;;5054180;28;20037;-74
2023/10/15 03:43:51;;;;;;;3.47;0.80;;;;;;;;;;5053944;28;20044;-74
2023/10/15 03:46:20;;;;;;;2.47;0.80;;;;;;;;;;5054494;28;20035;-74
2023/10/15 03:48:50;;;;;;;1.13;0.60;;;;;;;;;;5054258;28;20025;-74
2023/10/15 03:51:20;;;;;;;2.78;0.80;;;;;;;;;;5053851;28;20025;-74
2023/10/15 03:53:50;;;;;;;1.50;0.60;;;;;;;;;;5054081;28;20040;-74
2023/10/15 03:56:18;;;;;;;1.58;0.60;;;;;;;;;;5054097;28;20035;-74
2023/10/15 03:58:45;;;;;;;1.30;0.60;;;;;;;;;;5054029;28;20033;-73
2023/10/15 04:01:15;;;;;;;2.15;0.60;;;;;;;;;;5054014;28;20025;-74
2023/10/15 04:03:48;;;;;;;3.08;0.93;;;;;;;;;;5053552;28;20039;-74
2023/10/15 04:06:15;;;;;;;1.05;0.50;;;;;;;;;;5054139;28;20013;-73
2023/10/15 04:11:44;;;;;;;0.55;0.45;;;;;;;;;;5053707;28;20029;-74
2023/10/15 04:16:44;;;;;;;1.20;0.50;;;;;;;;;;5053624;28;20497;-74
2023/10/15 04:19:10;;;;;;;1.33;0.40;;;;;;;;;;5053253;28;20025;-74
2023/10/15 04:21:40;;;;;;;1.08;0.50;;;;;;;;;;5053854;28;20031;-73
2023/10/15 04:24:07;;;;;;;0.53;0.37;;;;;;;;;;5053671;28;20033;-74
2023/10/15 04:26:42;;;;;;;1.15;0.40;;;;;;;;;;5053285;28;20021;-74
2023/10/15 04:29:18;;;;;;;0.70;0.52;;;;;;;;;;5053532;28;20066;-74
2023/10/15 04:32:00;;;;;;;3.70;0.60;;;;;;;;;;5053528;28;20031;-74
2023/10/15 04:34:29;;;;;;;2.25;0.55;;;;;;;;;;5053014;28;20037;-74
2023/10/15 04:36:57;;;;;;;3.28;0.70;;;;;;;;;;5053429;28;20379;-74
2023/10/15 04:39:23;;;;;;;0.90;0.50;;;;;;;;;;5053282;28;20033;-74
2023/10/15 04:41:49;;;;;;;1.60;0.45;;;;;;;;;;5053209;28;20421;-73
2023/10/15 04:44:25;;;;;;;2.53;0.60;;;;;;;;;;5053342;28;20025;-74
2023/10/15 04:46:54;;;;;;;4.82;0.73;;;;;;;;;;5053111;28;20017;-74
2023/10/15 04:49:22;;;;;;;1.85;0.63;;;;;;;;;;5053217;28;20025;-73
2023/10/15 04:51:49;;;;;;;1.15;0.70;;;;;;;;;;5052855;28;20067;-74
2023/10/15 04:54:17;;;;;;;1.83;0.73;;;;;;;;;;5053116;28;20017;-73
2023/10/15 04:56:43;;;;;;;2.78;0.88;;;;;;;;;;5052883;28;20047;-74
2023/10/15 04:59:10;;;;;;;2.33;0.65;;;;;;;;;;5052879;28;20090;-74
2023/10/15 05:01:36;;;;;;;2.00;0.93;;;;;;;;;;5052367;28;20013;-74
2023/10/15 05:04:02;;;;;;;1.73;0.73;;;;;;;;;;5052850;28;20025;-74
2023/10/15 05:06:29;;;;;;;2.20;0.80;;;;;;;;;;5052827;28;20032;-74
2023/10/15 05:08:55;;;;;;;2.55;0.80;;;;;;;;;;5053013;28;20036;-74
2023/10/15 05:11:23;;;;;;;1.98;0.55;;;;;;;;;;5052681;28;20031;-74
2023/10/15 05:13:50;;;;;;;2.45;0.77;;;;;;;;;;5052543;28;20115;-74
2023/10/15 05:16:16;;;;;;;2.90;0.75;;;;;;;;;;5052394;28;20489;-74
2023/10/15 05:18:43;;;;;;;2.50;0.70;;;;;;;;;;5052603;28;20031;-74
2023/10/15 05:21:13;;;;;;;2.15;0.60;;;;;;;;;;5052640;28;20484;-73
2023/10/15 05:23:39;;;;;;;3.28;0.80;;;;;;;;;;5052366;28;20029;-74
2023/10/15 05:26:06;;;;;;;1.40;0.75;;;;;;;;;;5052497;28;20021;-74
2023/10/15 05:28:32;;;;;;;3.65;0.80;;;;;;;;;;5052372;28;20055;-74
2023/10/15 05:30:59;;;;;;;2.30;0.60;;;;;;;;;;5052176;28;20021;-74
2023/10/15 05:33:25;;;;;;;1.10;0.80;;;;;;;;;;5052398;28;20039;-74
2023/10/15 05:35:52;;;;;;;2.30;0.70;;;;;;;;;;5052458;28;20027;-74
2023/10/15 05:38:18;;;;;;;2.00;0.90;;;;;;;;;;5052323;28;20536;-74
2023/10/15 05:40:44;;;;;;;3.20;0.80;;;;;;;;;;5056501;28;20035;-74
2023/10/15 05:43:11;;;;;;;1.55;0.70;;;;;;;;;;5056874;28;20086;-74
2023/10/15 05:45:37;;;;;;;2.42;0.80;;;;;;;;;;5056097;28;20497;-74
2023/10/15 05:48:04;;;;;;;2.35;0.82;;;;;;;;;;5056419;28;20029;-74
2023/10/15 05:50:30;;;;;;;2.28;0.80;;;;;;;;;;5056361;28;20047;-74
2023/10/15 05:52:57;;;;;;;1.85;0.93;;;;;;;;;;5056316;28;20375;-74
2023/10/15 05:55:23;;;;;;;2.55;0.73;;;;;;;;;;5056404;28;20146;-74
2023/10/15 05:57:49;;;;;;;4.80;1.10;;;;;;;;;;5038313;28;20045;-74
2023/10/15 06:00:19;;;;;;;2.83;0.98;;;;;;;;;;5055915;28;20021;-73
2023/10/15 06:02:46;;;;;;;5.88;1.10;;;;;;;;;;5056151;28;20029;-74
2023/10/15 06:05:13;;;;;;;6.07;1.25;;;;;;;;;;5056141;28;20032;-73
2023/10/15 06:07:42;;;;;;;5.93;1.10;;;;;;;;;;5056105;28;20448;-74
2023/10/15 06:10:12;;;;;;;5.35;1.63;;;;;;;;;;5055960;28;20025;-74
2023/10/15 06:12:38;;;;;;;2.75;0.98;;;;;;;;;;5055921;28;20039;-75
2023/10/15 06:15:06;;;;;;;3.22;0.98;;;;;;;;;;5055749;28;20029;-74
2023/10/15 06:17:35;;;;;;;3.28;0.80;;;;;;;;;;5054691;28;20518;-73
2023/10/15 06:20:24;;;;;;;1.92;0.88;;;;;;;;;;5056068;28;20036;-74
2023/10/15 06:22:55;;;;;;;3.83;0.98;;;;;;;;;;5055543;28;20542;-74
2023/10/15 06:25:21;;;;;;;3.67;1.30;;;;;;;;;;5055781;28;20017;-73
2023/10/15 06:27:50;;;;;;;4.70;1.23;;;;;;;;;;5054358;28;20486;-74
2023/10/15 06:30:16;;;;;;;7.47;1.92;;;;;;;;;;5055329;28;20470;-73
2023/10/15 06:32:43;;;;;;;5.18;1.35;;;;;;;;;;5055616;28;20039;-73
2023/10/15 06:35:14;;;;;;;3.45;1.00;;;;;;;;;;5055547;28;20028;-74
2023/10/15 06:37:41;;;;;;;2.25;0.93;;;;;;;;;;5055634;28;20027;-74
2023/10/15 06:40:11;;;;;;;2.80;0.98;;;;;;;;;;5055484;28;20036;-73
2023/10/15 06:42:37;;;;;;;2.00;0.95;;;;;;;;;;5056017;28;20027;-73
2023/10/15 06:45:06;;;;;;;2.00;1.10;;;;;;;;;;5055583;28;20058;-73
2023/10/15 06:47:33;;;;;;;2.20;1.00;;;;;;;;;;5055663;28;20025;-74
2023/10/15 06:49:59;;;;;;;4.95;1.08;;;;;;;;;;5055460;28;20054;-74
2023/10/15 06:52:26;;;;;;;5.13;1.05;;;;;;;;;;5055241;28;20539;-74
2023/10/15 06:54:54;;;;;;;1.98;0.95;;;;;;;;;;5055128;28;20095;-74
2023/10/15 06:57:20;;;;;;;1.95;0.88;;;;;;;;;;5055155;28;20057;-74
2023/10/15 06:59:46;;;;;;;2.47;0.82;;;;;;;;;;5054833;28;20039;-74
2023/10/15 07:02:13;;;;;;;1.52;0.80;;;;;;;;;;5054915;28;20024;-74
2023/10/15 07:04:40;;;;;;;3.53;1.00;;;;;;;;;;5055259;28;20031;-74
2023/10/15 07:07:06;;;;;;;2.83;1.08;;;;;;;;;;5054897;28;20025;-73
2023/10/15 07:09:33;;;;;;;2.20;0.73;;;;;;;;;;5055251;28;20025;-73
2023/10/15 07:11:59;;;;;;;2.15;0.90;;;;;;;;;;5054459;28;20025;-73
2023/10/15 07:14:25;;;;;;;2.83;0.90;;;;;;;;;;5054744;28;20037;-74
2023/10/15 07:16:52;;;;;;;1.85;0.90;;;;;;;;;;5055111;28;20033;-74
2023/10/15 07:19:18;;;;;;;1.30;0.52;;;;;;;;;;5054896;28;20017;-74
2023/10/15 07:21:44;;;;;;;4.43;0.93;;;;;;;;;;5054827;28;20486;-74
2023/10/15 07:24:11;;;;;;;0.90;0.73;;;;;;;;;;5054924;28;20030;-74
2023/10/15 07:26:41;;;;;;;3.90;1.05;;;;;;;;;;5054030;28;20039;-74
2023/10/15 07:29:08;;;;;;;2.42;1.05;;;;;;;;;;5054790;28;20044;-74
2023/10/15 07:31:34;;;;;;;2.60;0.85;;;;;;;;;;5053279;28;20024;-74
2023/10/15 07:34:01;;;;;;;3.20;1.10;;;;;;;;;;5053610;28;20024;-74
2023/10/15 07:36:28;;;;;;;5.05;1.13;;;;;;;;;;5054461;28;20401;-74
2023/10/15 07:38:54;;;;;;;3.20;1.05;;;;;;;;;;5054513;28;20047;-74
2023/10/15 07:41:21;;;;;;;3.40;0.93;;;;;;;;;;5054079;28;20017;-74
2023/10/15 07:43:47;;;;;;;3.38;1.10;;;;;;;;;;5054585;28;20025;-74
2023/10/15 07:46:13;;;;;;;4.15;1.00;;;;;;;;;;5054164;28;20045;-74
2023/10/15 07:48:40;;;;;;;2.50;1.00;;;;;;;;;;5054276;28;20021;-74
2023/10/15 07:51:07;;;;;;;3.40;1.10;;;;;;;;;;5053978;28;20029;-74
2023/10/15 07:53:33;;;;;;;3.88;1.15;;;;;;;;;;5054067;28;20033;-74
2023/10/15 07:55:59;;;;;;;2.72;1.05;;;;;;;;;;5053625;28;20027;-74
2023/10/15 07:58:25;;;;;;;5.40;1.13;;;;;;;;;;5054069;28;20029;-74
2023/10/15 08:00:53;;;;;;;4.97;1.45;;;;;;;;;;5053950;28;20071;-74
2023/10/15 08:03:19;;;;;;;4.63;1.08;;;;;;;;;;5053321;28;20040;-74
2023/10/15 08:05:48;;;;;;;3.30;1.20;;;;;;;;;;5054243;28;20025;-74
2023/10/15 08:08:14;;;;;;;3.33;1.30;;;;;;;;;;5053926;28;20035;-74
2023/10/15 08:10:41;;;;;;;4.68;1.60;;;;;;;;;;5053739;28;20504;-74
2023/10/15 08:13:08;;;;;;;5.95;1.40;;;;;;;;;;5053868;28;20029;-74
2023/10/15 08:15:34;;;;;;;3.22;1.50;;;;;;;;;;5053909;28;20025;-74
2023/10/15 08:18:01;;;;;;;6.18;1.50;;;;;;;;;;5053718;28;20036;-74
2023/10/15 08:20:28;;;;;;;3.22;1.20;;;;;;;;;;5053803;28;20298;-74
2023/10/15 08:22:54;;;;;;;2.63;1.20;;;;;;;;;;5053728;28;20029;-74
2023/10/15 08:25:25;;;;;;;5.65;1.50;;;;;;;;;;5053363;28;20066;-74
2023/10/15 08:27:51;;;;;;;3.22;1.40;;;;;;;;;;5053852;28;20035;-74
2023/10/15 08:30:17;;;;;;;4.30;1.20;;;;;;;;;;5054148;28;20027;-74
2023/10/15 08:32:45;;;;;;;6.72;1.90;;;;;;;;;;5053714;28;20045;-75
2023/10/15 08:35:13;;;;;;;4.53;1.40;;;;;;;;;;5052736;28;20033;-74
2023/10/15 08:37:40;;;;;;;4.38;1.40;;;;;;;;;;5053376;28;20024;-75
2023/10/15 08:40:07;;;;;;;3.88;1.30;;;;;;;;;;5052954;28;20021;-74
2023/10/15 08:42:38;;;;;;;3.67;1.17;;;;;;;;;;5053309;28;20054;-75
2023/10/15 08:45:04;;;;;;;;;;;;;;;;;;5053807;28;20033;-74
2023/10/15 08:47:32;;;;;;;5.15;1.63;;;;;;;;;;5053080;28;19926;-75
2023/10/15 08:49:59;;;;;;;3.33;1.60;;;;;;;;;;5053149;28;20031;-75
2023/10/15 08:52:27;;;;;;;4.22;1.52;;;;;;;;;;5053135;28;20021;-75
2023/10/15 08:55:01;;;;;;;3.70;1.35;;;;;;;;;;5052562;28;20032;-75
2023/10/15 08:57:29;;;;;;;4.70;1.40;;;;;;;;;;5052782;28;20064;-75
2023/10/15 08:59:57;;;;;;;3.30;1.50;;;;;;;;;;5052061;28;20101;-75
2023/10/15 09:02:24;;;;;;;3.22;1.38;;;;;;;;;;5052828;28;20493;-75
2023/10/15 09:04:53;;;;;;;5.28;1.33;;;;;;;;;;5051816;28;20032;-75
2023/10/15 09:07:19;;;;;;;5.70;1.40;;;;;;;;;;5053107;28;20016;-75
2023/10/15 09:09:45;;;;;;;3.58;1.48;;;;;;;;;;5052497;28;20021;-75
2023/10/15 09:12:12;;;;;;;4.28;1.80;;;;;;;;;;5051459;28;20051;-75
2023/10/15 09:14:39;;;;;;;3.45;1.70;;;;;;;;;;5051730;28;20413;-75
2023/10/15 09:17:09;;;;;;;4.90;1.50;;;;;;;;;;5052660;28;20032;-75
2023/10/15 09:19:37;;;;;;;3.53;1.55;;;;;;;;;;5052860;28;20017;-75
2023/10/15 09:22:05;;;;;;;5.10;1.60;;;;;;;;;;5051275;28;20039;-75
2023/10/15 09:24:31;;;;;;;3.00;1.55;;;;;;;;;;5052266;28;20025;-75
2023/10/15 09:26:58;;;;;;;4.13;1.58;;;;;;;;;;5052228;28;20047;-75
2023/10/15 09:29:28;;;;;;;2.78;1.17;;;;;;;;;;5052991;28;20032;-75
2023/10/15 09:32:02;;;;;;;5.63;1.40;;;;;;;;;;5052646;28;20031;-76
2023/10/15 09:34:32;;;;;;;3.60;1.45;;;;;;;;;;5052677;28;20305;-75
2023/10/15 09:36:58;;;;;;;4.10;1.50;;;;;;;;;;5052065;28;20023;-75
2023/10/15 09:39:29;;;;;;;4.03;1.58;;;;;;;;;;5052350;28;20634;-75
2023/10/15 09:42:05;;;;;;;3.08;1.40;;;;;;;;;;5052494;28;20032;-75
2023/10/15 09:44:32;;;;;;;3.65;1.50;;;;;;;;;;5052339;28;20090;-75
2023/10/15 09:47:01;;;;;;;5.63;1.75;;;;;;;;;;5052624;28;20028;-75
2023/10/15 09:49:29;;;;;;;3.85;1.50;;;;;;;;;;5052300;28;20373;-76
2023/10/15 09:51:55;;;;;;;7.20;1.60;;;;;;;;;;5051871;28;20563;-75
2023/10/15 09:54:23;;;;;;;5.32;1.48;;;;;;;;;;5052409;28;20029;-75
2023/10/15 09:56:49;;;;;;;4.55;1.42;;;;;;;;;;5052091;28;20045;-76
2023/10/15 09:59:17;;;;;;;4.95;1.52;;;;;;;;;;5052685;28;20051;-76
2023/10/15 10:01:53;;;;;;;6.90;1.95;;;;;;;;;;5052251;28;20021;-76
2023/10/15 10:04:43;;;;;;;3.15;1.35;;;;;;;;;;5052380;28;20062;-76
2023/10/15 10:07:12;;;;;;;2.90;1.38;;;;;;;;;;5052271;28;20017;-75
2023/10/15 10:09:42;;;;;;;3.40;1.30;;;;;;;;;;5052160;28;20027;-75
2023/10/15 10:12:26;;;;;;;4.68;1.65;;;;;;;;;;5052164;28;20029;-76
2023/10/15 10:15:11;;;;;;;2.25;1.20;;;;;;;;;;5051923;28;20390;-76
2023/10/15 10:17:39;;;;;;;3.67;1.50;;;;;;;;;;5052052;28;20413;-76
2023/10/15 10:20:11;;;;;;;2.83;1.45;;;;;;;;;;5052388;28;20074;-76
2023/10/15 10:22:38;;;;;;;2.85;1.23;;;;;;;;;;5051002;28;20021;-76
2023/10/15 10:25:05;;;;;;;4.60;1.42;;;;;;;;;;5053046;28;20025;-76
2023/10/15 10:27:41;;;;;;;3.40;1.38;;;;;;;;;;5055506;28;20074;-76
2023/10/15 10:30:39;;;;;;;4.30;1.55;;;;;;;;;;5056018;28;20041;-76
2023/10/15 10:33:06;;;;;;;3.40;1.40;;;;;;;;;;5033421;28;20087;-76
2023/10/15 10:35:45;;;;;;;6.18;1.45;;;;;;;;;;5033449;28;20042;-76
2023/10/15 10:38:17;;;;;;;4.10;1.40;;;;;;;;;;5017218;28;20051;-75
2023/10/15 10:41:04;;;;;;;5.20;1.48;;;;;;;;;;5033439;28;20037;-76
2023/10/15 10:43:32;;;;;;;3.60;1.55;;;;;;;;;;5033573;28;20037;-76
2023/10/15 10:46:00;;;;;;;3.08;1.30;;;;;;;;;;5033501;28;20021;-76
2023/10/15 10:48:33;;;;;;;3.13;1.25;;;;;;;;;;5033432;28;20397;-76
2023/10/15 10:51:11;;;;;;;5.20;1.58;;;;;;;;;;5033096;28;20026;-76
2023/10/15 10:54:00;;;;;;;3.30;1.33;;;;;;;;;;5033215;28;20043;-76
2023/10/15 10:56:38;;;;;;;2.85;1.38;;;;;;;;;;5016571;28;20037;-76
2023/10/15 10:59:08;;;;;;;5.43;1.42;;;;;;;;;;5033108;28;20034;-76
2023/10/15 11:01:37;;;;;;;3.58;1.60;;;;;;;;;;5033161;28;20045;-76
2023/10/15 11:04:04;;;;;;;3.72;1.58;;;;;;;;;;5032592;28;20029;-76
2023/10/15 11:06:30;;;;;;;2.88;1.50;;;;;;;;;;5033424;28;20033;-76
2023/10/15 11:08:57;;;;;;;2.70;1.33;;;;;;;;;;5046467;28;20035;-76
2023/10/15 11:11:23;;;;;;;6.55;1.50;;;;;;;;;;5054990;28;20100;-76
2023/10/15 11:13:50;;;;;;;4.05;1.70;;;;;;;;;;5054794;28;20028;-76
2023/10/15 11:16:16;;;;;;;4.15;1.30;;;;;;;;;;5054828;28;20381;-76
2023/10/15 11:18:46;;;;;;;3.45;1.40;;;;;;;;;;5054561;28;20036;-76
2023/10/15 11:21:13;;;;;;;3.58;1.23;;;;;;;;;;5054822;28;20025;-76
2023/10/15 11:23:39;;;;;;;3.90;1.60;;;;;;;;;;5054762;28;20027;-76
2023/10/15 11:26:08;;;;;;;3.17;1.50;;;;;;;;;;5054558;28;20033;-76
2023/10/15 11:28:34;;;;;;;4.95;1.80;;;;;;;;;;5054531;28;20029;-76
2023/10/15 11:31:02;;;;;;;3.95;1.40;;;;;;;;;;5054626;28;20017;-76
2023/10/15 11:33:29;;;;;;;4.43;1.42;;;;;;;;;;5054325;28;20037;-77
2023/10/15 11:35:55;;;;;;;3.10;1.20;;;;;;;;;;5054246;28;20063;-77
2023/10/15 11:38:22;;;;;;;3.75;1.30;;;;;;;;;;5054219;28;20021;-76
2023/10/15 11:40:48;;;;;;;2.45;1.20;;;;;;;;;;5054308;28;20027;-77
2023/10/15 11:43:15;;;;;;;5.20;1.42;;;;;;;;;;5054453;28;20032;-76
2023/10/15 11:45:42;;;;;;;5.32;1.67;;;;;;;;;;5054561;28;20035;-76
2023/10/15 11:48:14;;;;;;;3.47;1.30;;;;;;;;;;5054228;28;20021;-76
2023/10/15 11:50:41;;;;;;;3.90;1.10;;;;;;;;;;5053315;28;20021;-76
2023/10/15 11:53:16;;;;;;;3.15;1.52;;;;;;;;;;5054056;28;20037;-76
2023/10/15 11:55:52;;;;;;;3.03;1.20;;;;;;;;;;5054420;28;20033;-76
2023/10/15 11:58:30;;;;;;;5.32;1.20;;;;;;;;;;5054092;28;20037;-77
2023/10/15 12:00:58;;;;;;;3.35;1.30;;;;;;;;;;5054068;28;20025;-77
2023/10/15 12:03:25;;;;;;;2.20;1.23;;;;;;;;;;5053919;28;20035;-77
2023/10/15 12:05:51;;;;;;;4.05;1.30;;;;;;;;;;5053990;28;20504;-77
2023/10/15 12:08:21;;;;;;;4.75;1.40;;;;;;;;;;5053882;28;20024;-77
2023/10/15 12:10:49;;;;;;;2.40;1.23;;;;;;;;;;5053856;28;20054;-77
2023/10/15 12:13:15;;;;;;;2.20;1.17;;;;;;;;;;5052549;28;20049;-77
2023/10/15 12:15:42;;;;;;;3.40;1.40;;;;;;;;;;5053619;28;20031;-77
2023/10/15 12:18:09;;;;;;;5.28;1.50;;;;;;;;;;5053318;28;20025;-77
2023/10/15 12:20:36;;;;;;;3.13;1.30;;;;;;;;;;5053786;28;20470;-77
2023/10/15 12:23:03;;;;;;;3.13;1.20;;;;;;;;;;5053893;28;20030;-77
2023/10/15 12:25:30;;;;;;;1.75;1.20;;;;;;;;;;5053494;28;20473;-78
2023/10/15 12:27:57;;;;;;;4.07;1.40;;;;;;;;;;5053787;28;20029;-78
2023/10/15 12:30:24;;;;;;;3.97;1.50;;;;;;;;;;5053460;28;20031;-78
2023/10/15 12:32:53;;;;;;;2.70;1.10;;;;;;;;;;5052954;28;20490;-78
2023/10/15 12:35:20;;;;;;;6.73;1.40;;;;;;;;;;5053453;28;20029;-78
2023/10/15 12:37:47;;;;;;;4.70;1.23;;;;;;;;;;5053640;28;20029;-78
2023/10/15 12:40:21;;;;;;;2.08;1.23;;;;;;;;;;5053238;28;20031;-78
2023/10/15 12:42:47;;;;;;;5.78;1.67;;;;;;;;;;5053501;28;20070;-79
2023/10/15 12:45:13;;;;;;;5.38;1.40;;;;;;;;;;5053430;28;20017;-78
2023/10/15 12:47:40;;;;;;;2.92;1.30;;;;;;;;;;5053021;28;20029;-78
2023/10/15 12:50:16;;;;;;;1.88;1.23;;;;;;;;;;5053056;28;20023;-78
2023/10/15 12:52:46;;;;;;;2.83;1.40;;;;;;;;;;5053022;28;20033;-79
2023/10/15 12:55:19;;;;;;;1.20;0.90;;;;;;;;;;5053059;28;20491;-79
2023/10/15 12:57:46;;;;;;;1.75;1.20;;;;;;;;;;5052847;28;20514;-79
2023/10/15 13:00:21;;;;;;;5.40;1.40;;;;;;;;;;5052892;28;20025;-78
2023/10/15 13:02:51;;;;;;;2.58;1.33;;;;;;;;;;5052976;28;20377;-78
2023/10/15 13:05:19;;;;;;;1.30;0.93;;;;;;;;;;5053062;28;20043;-78
2023/10/15 13:07:45;;;;;;;3.47;1.05;;;;;;;;;;5053082;28;20031;-78
2023/10/15 13:10:13;;;;;;;3.88;1.10;;;;;;;;;;5052972;28;20029;-79
2023/10/15 13:12:40;;;;;;;3.80;1.10;;;;;;;;;;5052612;28;20031;-79
2023/10/15 13:15:07;;;;;;;5.57;1.25;;;;;;;;;;5052378;28;20020;-78
2023/10/15 13:17:34;;;;;;;3.17;0.80;;;;;;;;;;5053022;28;20044;-79
2023/10/15 13:20:05;;;;;;;3.10;1.20;;;;;;;;;;5052710;28;20020;-78
2023/10/15 13:22:32;;;;;;;1.65;0.98;;;;;;;;;;5052628;28;20025;-78
2023/10/15 13:24:58;;;;;;;3.42;1.10;;;;;;;;;;5052732;28;20024;-78
2023/10/15 13:27:25;;;;;;;4.47;1.08;;;;;;;;;;5052559;28;20021;-78
2023/10/15 13:29:51;;;;;;;4.10;0.93;;;;;;;;;;5052463;28;20631;-78
2023/10/15 13:32:17;;;;;;;2.85;1.20;;;;;;;;;;5052426;28;20029;-77
2023/10/15 13:34:44;;;;;;;2.58;1.17;;;;;;;;;;5052452;28;20509;-77
2023/10/15 13:37:10;;;;;;;3.25;1.10;;;;;;;;;;5051484;28;20043;-78
2023/10/15 13:39:37;;;;;;;3.17;1.20;;;;;;;;;;5052717;28;20025;-78
2023/10/15 13:42:05;;;;;;;2.42;1.10;;;;;;;;;;5052738;28;20017;-78
2023/10/15 13:44:31;;;;;;;3.60;1.10;;;;;;;;;;5052335;28;20029;-78
2023/10/15 13:46:58;;;;;;;2.33;1.10;;;;;;;;;;5052370;28;20025;-77
2023/10/15 13:49:24;;;;;;;2.92;1.00;;;;;;;;;;5052333;28;20461;-78
2023/10/15 13:51:51;;;;;;;2.63;0.85;;;;;;;;;;5052562;28;20025;-77
2023/10/15 13:54:17;;;;;;;2.83;1.13;;;;;;;;;;5052124;28;20490;-77
2023/10/15 13:56:44;;;;;;;4.28;0.98;;;;;;;;;;5052171;28;20056;-77
2023/10/15 13:59:14;;;;;;;1.88;1.00;;;;;;;;;;5051082;28;20032;-77
2023/10/15 14:01:41;;;;;;;5.10;1.10;;;;;;;;;;5056122;28;20035;-77
2023/10/15 14:04:08;;;;;;;1.35;0.80;;;;;;;;;;5056383;28;20344;-77
2023/10/15 14:06:35;;;;;;;5.40;0.90;;;;;;;;;;5056214;28;20021;-77
2023/10/15 14:09:01;;;;;;;1.73;0.75;;;;;;;;;;5056110;28;20066;-77
2023/10/15 14:11:30;;;;;;;4.03;1.10;;;;;;;;;;5056387;28;20025;-76
2023/10/15 14:13:57;;;;;;;3.78;0.98;;;;;;;;;;5055563;28;20370;-77
2023/10/15 14:16:23;;;;;;;1.92;0.80;;;;;;;;;;5056241;28;20029;-76
2023/10/15 14:18:51;;;;;;;5.10;1.02;;;;;;;;;;5054781;28;20379;-76
2023/10/15 14:21:18;;;;;;;2.72;0.90;;;;;;;;;;5055991;28;20036;-76
2023/10/15 14:23:45;;;;;;;3.33;1.02;;;;;;;;;;5055883;28;20550;-76
2023/10/15 14:26:17;;;;;;;3.67;1.20;;;;;;;;;;5056040;28;20047;-76
2023/10/15 14:28:44;;;;;;;1.33;0.70;;;;;;;;;;5055683;28;20039;-76
2023/10/15 14:31:11;;;;;;;2.53;0.90;;;;;;;;;;5055819;28;20055;-76
2023/10/15 14:33:38;;;;;;;4.63;1.27;;;;;;;;;;5055864;28;20037;-76
2023/10/15 14:36:07;;;;;;;2.67;1.30;;;;;;;;;;5055659;28;20424;-77
2023/10/15 14:38:33;;;;;;;3.10;0.90;;;;;;;;;;5055654;28;20021;-77
2023/10/15 14:40:59;;;;;;;2.30;1.17;;;;;;;;;;5055455;28;20029;-77
2023/10/15 14:43:25;;;;;;;1.85;0.90;;;;;;;;;;5055439;28;20029;-77
2023/10/15 14:45:53;;;;;;;2.42;1.02;;;;;;;;;;5055822;28;20021;-77
2023/10/15 14:48:19;;;;;;;3.67;0.90;;;;;;;;;;5055685;28;20047;-77
2023/10/15 14:50:46;;;;;;;5.05;1.13;;;;;;;;;;5055675;28;20017;-77
2023/10/15 14:53:14;;;;;;;3.00;1.27;;;;;;;;;;5055383;28;20055;-76
2023/10/15 14:55:41;;;;;;;2.78;1.15;;;;;;;;;;5055561;28;20025;-76
2023/10/15 14:58:07;;;;;;;3.17;1.30;;;;;;;;;;5054781;28;20041;-76
2023/10/15 15:00:34;;;;;;;4.35;1.60;;;;;;;;;;5055266;28;20021;-76
2023/10/15 15:03:00;;;;;;;2.33;1.20;;;;;;;;;;5055316;28;20021;-76